Time;durP1;ratioP1;P1;durP2;ratioP2;P2;SDS_P1;SDS_P2;PMS_P1;PMS_P2;Temp;Humidity;BMP_temperature;BMP_pressure;BME280_temperature;BME280_humidity;BME280_pressure;Samples;Min_cycle;Max_cycle;Signal;HPM_P1;HPM_P2
2021/04/03 00:01:31;;;;;;;26.17;4.80;;;4.80;99.90;;;;;;5018135;28;20236;-92
2021/04/03 00:04:12;;;;;;;22.10;4.93;;;4.80;99.90;;;;;;5017829;28;20653;-90
2021/04/03 00:06:38;;;;;;;23.70;4.07;;;4.80;99.90;;;;;;5018180;28;20174;-91
2021/04/03 00:09:05;;;;;;;24.03;5.07;;;4.70;99.80;;;;;;5018150;28;20174;-90
2021/04/03 00:11:38;;;;;;;23.30;3.90;;;4.70;99.90;;;;;;5017626;28;20228;-92
2021/04/03 00:14:07;;;;;;;24.17;3.77;;;4.70;99.90;;;;;;5017660;28;20167;-90
2021/04/03 00:16:47;;;;;;;22.73;4.93;;;4.60;99.80;;;;;;5017548;28;20632;-91
2021/04/03 00:19:14;;;;;;;21.27;4.50;;;4.60;99.90;;;;;;5017600;28;20205;-90
2021/04/03 00:21:55;;;;;;;20.47;4.93;;;4.60;99.90;;;;;;5017600;28;20204;-90
2021/04/03 00:24:50;;;;;;;19.80;4.17;;;4.50;99.90;;;;;;5017552;28;20224;-91
2021/04/03 00:27:16;;;;;;;18.97;3.90;;;4.40;99.90;;;;;;5017658;28;20176;-92
2021/04/03 00:30:20;;;;;;;23.03;4.17;;;4.40;99.90;;;;;;5017589;28;20220;-91
2021/04/03 00:32:55;;;;;;;20.53;4.10;;;4.40;99.90;;;;;;5017420;28;20257;-90
2021/04/03 00:35:29;;;;;;;28.07;4.60;;;4.30;99.90;;;;;;5000169;28;20227;-92
2021/04/03 00:38:10;;;;;;;19.90;4.23;;;4.30;99.90;;;;;;4994600;28;20278;-91
2021/04/03 00:40:51;;;;;;;25.23;4.70;;;4.30;99.90;;;;;;4994420;28;20287;-90
2021/04/03 00:43:29;;;;;;;19.77;3.70;;;4.20;99.90;;;;;;4994324;28;20179;-91
2021/04/03 00:46:19;;;;;;;19.30;3.47;;;4.20;99.90;;;;;;4993676;28;20175;-92
2021/04/03 00:48:48;;;;;;;15.53;3.57;;;4.20;99.90;;;;;;4994257;28;20191;-92
2021/04/03 00:51:13;;;;;;;30.50;4.37;;;4.10;99.90;;;;;;4994204;28;20204;-90
2021/04/03 00:53:39;;;;;;;20.47;4.03;;;4.10;99.90;;;;;;4994353;28;20190;-91
2021/04/03 00:56:15;;;;;;;23.57;3.90;;;4.10;99.90;;;;;;4993976;28;20187;-91
2021/04/03 00:58:47;;;;;;;27.67;4.77;;;4.00;99.90;;;;;;4994007;28;20513;-90
2021/04/03 01:01:12;;;;;;;19.17;3.40;;;4.00;99.90;;;;;;4994017;28;20219;-92
2021/04/03 01:03:42;;;;;;;21.57;4.03;;;4.00;99.90;;;;;;4993845;28;20190;-91
2021/04/03 01:06:15;;;;;;;15.47;3.57;;;3.90;99.90;;;;;;4993831;28;20269;-91
2021/04/03 01:08:50;;;;;;;18.13;3.37;;;3.90;99.90;;;;;;4994086;28;20167;-90
2021/04/03 01:11:20;;;;;;;19.03;3.87;;;4.00;99.90;;;;;;4993634;28;20698;-92
2021/04/03 01:14:09;;;;;;;20.73;3.50;;;3.90;99.90;;;;;;4993898;28;20167;-91
2021/04/03 01:17:08;;;;;;;25.13;3.93;;;3.80;99.90;;;;;;4994124;28;20184;-91
2021/04/03 01:19:34;;;;;;;20.20;3.97;;;3.90;99.90;;;;;;4993629;28;20195;-90
2021/04/03 01:22:52;;;;;;;21.47;3.80;;;3.80;99.90;;;;;;4993863;28;20254;-90
2021/04/03 01:25:58;;;;;;;22.97;3.93;;;3.80;99.90;;;;;;4994072;28;20200;-90
2021/04/03 01:28:34;;;;;;;20.13;3.40;;;3.80;99.90;;;;;;4986555;28;20188;-91
2021/04/03 01:31:18;;;;;;;25.13;3.80;;;3.80;99.90;;;;;;4994011;28;20302;-91
2021/04/03 01:33:48;;;;;;;19.33;3.77;;;3.70;99.90;;;;;;4994094;28;20318;-90
2021/04/03 01:36:21;;;;;;;23.73;4.13;;;3.60;99.90;;;;;;4993749;28;20258;-90
2021/04/03 01:38:56;;;;;;;18.17;3.63;;;3.60;99.90;;;;;;4993616;28;20536;-90
2021/04/03 01:41:41;;;;;;;23.27;3.67;;;3.50;99.90;;;;;;4993561;28;20251;-89
2021/04/03 01:44:42;;;;;;;22.97;3.53;;;3.50;99.90;;;;;;4993714;28;20167;-90
2021/04/03 01:47:22;;;;;;;25.90;3.93;;;3.50;99.90;;;;;;4993417;28;20175;-91
2021/04/03 01:49:52;;;;;;;16.47;3.60;;;3.50;99.90;;;;;;4993639;28;20187;-92
2021/04/03 01:52:28;;;;;;;20.23;3.67;;;3.40;99.90;;;;;;4994393;28;20278;-93
2021/04/03 01:54:56;;;;;;;19.70;3.87;;;3.40;99.80;;;;;;4993458;28;20168;-92
2021/04/03 01:57:34;;;;;;;19.07;3.37;;;3.40;99.90;;;;;;4996079;28;20164;-91
2021/04/03 02:00:33;;;;;;;28.23;3.90;;;3.30;99.90;;;;;;4997284;28;20204;-91
2021/04/03 02:03:04;;;;;;;23.63;3.20;;;3.40;99.80;;;;;;4997164;28;20191;-92
2021/04/03 02:05:49;;;;;;;19.40;3.53;;;3.30;99.90;;;;;;4997137;28;20259;-91
2021/04/03 02:11:51;;;;;;;17.07;3.10;;;3.30;99.80;;;;;;4998332;28;20198;-93
2021/04/03 02:14:43;;;;;;;17.40;2.90;;;3.20;99.90;;;;;;4997060;28;20219;-92
2021/04/03 02:17:28;;;;;;;12.83;2.80;;;3.20;99.90;;;;;;4998128;28;20489;-90
2021/04/03 02:19:58;;;;;;;15.87;3.47;;;3.20;99.90;;;;;;4996791;28;20200;-93
2021/04/03 02:22:26;;;;;;;15.37;2.83;;;3.20;99.90;;;;;;4996882;28;20226;-91
2021/04/03 02:25:08;;;;;;;16.20;3.37;;;3.10;99.90;;;;;;4996935;28;20211;-91
2021/04/03 02:27:58;;;;;;;24.73;3.50;;;3.10;99.90;;;;;;4996817;28;20194;-90
2021/04/03 02:30:32;;;;;;;25.73;4.33;;;3.10;99.90;;;;;;4996824;28;20168;-92
2021/04/03 02:32:58;;;;;;;22.60;3.33;;;3.10;99.90;;;;;;4996772;28;20223;-92
2021/04/03 02:35:30;;;;;;;16.70;3.10;;;3.10;99.80;;;;;;4996834;28;20231;-92
2021/04/03 02:38:06;;;;;;;16.73;3.03;;;3.10;99.60;;;;;;4996714;28;20180;-91
2021/04/03 02:40:46;;;;;;;14.90;2.57;;;3.10;99.80;;;;;;4996556;28;20206;-93
2021/04/03 02:43:16;;;;;;;16.00;2.93;;;3.10;99.70;;;;;;4996437;28;20168;-90
2021/04/03 02:46:03;;;;;;;18.67;3.47;;;3.10;99.80;;;;;;4996481;28;20219;-91
2021/04/03 02:48:36;;;;;;;20.07;3.10;;;3.10;99.80;;;;;;4996222;28;20184;-92
2021/04/03 02:51:08;;;;;;;13.50;2.73;;;3.00;99.60;;;;;;4996309;28;20287;-89
2021/04/03 02:53:41;;;;;;;13.57;2.73;;;3.00;99.60;;;;;;4996445;28;20184;-91
2021/04/03 02:56:28;;;;;;;17.70;3.70;;;2.90;99.90;;;;;;4996266;28;20172;-92
2021/04/03 02:58:55;;;;;;;14.37;2.60;;;2.90;99.80;;;;;;4996198;28;20195;-91
2021/04/03 03:01:23;;;;;;;17.50;3.07;;;3.00;99.80;;;;;;4995957;28;20250;-92
2021/04/03 03:03:51;;;;;;;15.93;3.10;;;2.90;99.80;;;;;;4996268;28;20657;-93
2021/04/03 03:06:23;;;;;;;20.97;3.57;;;2.90;99.60;;;;;;4976685;28;20179;-91
2021/04/03 03:08:53;;;;;;;17.10;3.00;;;2.90;99.90;;;;;;4976107;28;20173;-93
2021/04/03 03:11:34;;;;;;;19.53;3.37;;;2.80;99.90;;;;;;4976423;28;20259;-91
2021/04/03 03:14:09;;;;;;;16.87;2.70;;;2.80;99.90;;;;;;4976382;28;20245;-93
2021/04/03 03:16:48;;;;;;;19.33;3.00;;;2.80;99.90;;;;;;4976548;28;20550;-92
2021/04/03 03:19:28;;;;;;;23.17;3.83;;;2.80;99.90;;;;;;4976370;28;20176;-92
2021/04/03 03:22:12;;;;;;;16.37;2.53;;;2.70;99.90;;;;;;4976299;28;20196;-91
2021/04/03 03:24:39;;;;;;;20.60;2.73;;;2.70;99.90;;;;;;4976247;28;20320;-91
2021/04/03 03:27:17;;;;;;;22.07;3.37;;;2.70;99.90;;;;;;4976310;28;20179;-92
2021/04/03 03:29:51;;;;;;;20.40;2.73;;;2.70;99.90;;;;;;4976274;28;20177;-91
2021/04/03 03:32:18;;;;;;;20.97;3.33;;;2.70;99.90;;;;;;4976217;28;20319;-91
2021/04/03 03:35:07;;;;;;;20.90;3.97;;;2.70;99.90;;;;;;4983167;28;20242;-92
2021/04/03 03:37:35;;;;;;;27.80;3.50;;;2.70;99.90;;;;;;4995395;28;20272;-93
2021/04/03 03:40:10;;;;;;;16.27;3.37;;;2.80;99.90;;;;;;4995257;28;20302;-91
2021/04/03 03:42:38;;;;;;;16.23;3.30;;;2.80;99.90;;;;;;4995332;28;20195;-91
2021/04/03 03:45:07;;;;;;;14.67;3.10;;;2.80;99.90;;;;;;4995400;28;20255;-92
2021/04/03 03:47:53;;;;;;;14.97;3.13;;;2.90;99.80;;;;;;4995187;28;20172;-90
2021/04/03 03:50:26;;;;;;;17.13;3.17;;;2.90;99.70;;;;;;4995129;28;20176;-91
2021/04/03 03:53:00;;;;;;;12.37;3.00;;;2.90;99.50;;;;;;4995190;28;20176;-92
2021/04/03 03:55:28;;;;;;;17.97;2.93;;;2.90;99.30;;;;;;4995057;28;20183;-91
2021/04/03 03:58:05;;;;;;;13.93;2.67;;;2.90;99.20;;;;;;4994896;28;20234;-93
2021/04/03 04:00:34;;;;;;;13.53;2.93;;;2.90;99.10;;;;;;4994939;28;20203;-91
2021/04/03 04:03:34;;;;;;;18.00;3.40;;;2.80;99.00;;;;;;4996158;28;20665;-91
2021/04/03 04:06:02;;;;;;;19.60;2.90;;;2.90;98.90;;;;;;4994714;28;20183;-91
2021/04/03 04:08:36;;;;;;;18.20;2.57;;;2.80;99.00;;;;;;4994907;28;20198;-92
2021/04/03 04:11:08;;;;;;;16.47;2.77;;;2.90;99.10;;;;;;4995034;28;20203;-91
2021/04/03 04:13:36;;;;;;;14.50;2.90;;;2.90;99.10;;;;;;4994923;28;20199;-91
2021/04/03 04:16:03;;;;;;;14.57;3.20;;;2.80;99.20;;;;;;4995037;28;20215;-93
2021/04/03 04:18:39;;;;;;;17.60;3.43;;;2.80;99.10;;;;;;4994810;28;20251;-93
2021/04/03 04:21:13;;;;;;;23.07;2.90;;;2.80;99.10;;;;;;4993463;28;20310;-90
2021/04/03 04:23:44;;;;;;;16.97;3.73;;;2.80;99.00;;;;;;4994685;28;20226;-93
2021/04/03 04:26:13;;;;;;;19.83;3.57;;;2.70;99.00;;;;;;4994585;28;20175;-91
2021/04/03 04:28:40;;;;;;;19.43;3.17;;;2.60;99.40;;;;;;4994579;28;20168;-92
2021/04/03 04:31:29;;;;;;;15.93;3.00;;;2.60;99.40;;;;;;4994351;28;20231;-92
2021/04/03 04:33:54;;;;;;;18.00;3.63;;;2.60;99.20;;;;;;4994880;28;20611;-92
2021/04/03 04:36:23;;;;;;;20.97;3.17;;;2.60;99.30;;;;;;5017077;28;20237;-92
2021/04/03 04:38:53;;;;;;;14.87;3.50;;;2.60;99.30;;;;;;5012104;28;20172;-91
2021/04/03 04:41:27;;;;;;;22.10;3.00;;;2.60;99.20;;;;;;4997579;28;20306;-90
2021/04/03 04:43:53;;;;;;;19.20;3.60;;;2.60;99.20;;;;;;5012648;28;20185;-89
2021/04/03 04:46:33;;;;;;;18.20;2.80;;;2.60;99.20;;;;;;5034671;28;20155;-92
2021/04/03 04:49:16;;;;;;;15.47;2.70;;;2.60;99.10;;;;;;5017197;28;20177;-91
2021/04/03 04:51:43;;;;;;;21.73;3.00;;;2.60;99.00;;;;;;5014154;28;20194;-91
2021/04/03 04:54:09;;;;;;;19.20;3.57;;;2.60;98.90;;;;;;4997288;28;20173;-90
2021/04/03 04:56:36;;;;;;;13.63;3.13;;;2.60;99.00;;;;;;4996934;28;20184;-91
2021/04/03 04:59:03;;;;;;;20.80;3.53;;;2.60;99.00;;;;;;4997060;28;20172;-90
2021/04/03 05:01:38;;;;;;;17.53;3.63;;;2.60;98.90;;;;;;4997019;28;20199;-91
2021/04/03 05:04:17;;;;;;;18.80;3.20;;;2.60;99.20;;;;;;4997164;28;20186;-92
2021/04/03 05:06:48;;;;;;;16.83;3.43;;;2.60;99.10;;;;;;4997182;28;20171;-90
2021/04/03 05:09:19;;;;;;;17.97;2.90;;;2.60;98.90;;;;;;5007472;28;20182;-92
2021/04/03 05:11:48;;;;;;;16.50;3.23;;;2.60;99.00;;;;;;5033334;28;20230;-92
2021/04/03 05:14:14;;;;;;;17.43;4.10;;;2.60;99.00;;;;;;5033583;28;20167;-90
2021/04/03 05:16:41;;;;;;;16.33;3.23;;;2.60;98.90;;;;;;5030306;28;20186;-92
2021/04/03 05:19:10;;;;;;;22.30;3.10;;;2.60;98.90;;;;;;4997305;28;20167;-90
2021/04/03 05:21:46;;;;;;;18.60;3.07;;;2.60;98.90;;;;;;4996990;28;20206;-91
2021/04/03 05:24:12;;;;;;;14.33;3.20;;;2.60;99.00;;;;;;4997057;28;20172;-91
2021/04/03 05:26:43;;;;;;;15.53;3.10;;;2.60;99.10;;;;;;4996894;28;20251;-91
2021/04/03 05:29:09;;;;;;;13.80;3.00;;;2.70;99.00;;;;;;5003067;28;20704;-93
2021/04/03 05:31:46;;;;;;;21.73;3.70;;;2.80;99.00;;;;;;5032372;28;20191;-90
2021/04/03 05:34:12;;;;;;;13.97;2.93;;;2.80;98.90;;;;;;5032040;28;20168;-91
2021/04/03 05:36:45;;;;;;;20.63;3.83;;;2.90;98.70;;;;;;5032966;28;20645;-92
2021/04/03 05:39:11;;;;;;;22.20;4.00;;;3.00;98.70;;;;;;5032895;28;20266;-90
2021/04/03 05:41:54;;;;;;;19.30;3.33;;;3.00;98.70;;;;;;5032822;28;20259;-91
2021/04/03 05:44:23;;;;;;;18.87;3.73;;;3.10;98.60;;;;;;5032792;28;20198;-92
2021/04/03 05:46:51;;;;;;;16.70;3.73;;;3.10;98.70;;;;;;5032687;28;20171;-91
2021/04/03 05:49:23;;;;;;;15.67;3.37;;;3.10;98.80;;;;;;5032670;28;20209;-91
2021/04/03 05:51:57;;;;;;;21.43;3.83;;;3.20;99.00;;;;;;5032535;28;20191;-91
2021/04/03 05:54:24;;;;;;;16.90;3.40;;;3.10;98.90;;;;;;5032827;28;20178;-92
2021/04/03 05:56:54;;;;;;;22.43;4.47;;;3.10;99.30;;;;;;5032832;28;20175;-90
2021/04/03 05:59:29;;;;;;;15.03;3.87;;;3.10;99.50;;;;;;5029457;28;20217;-91
2021/04/03 06:02:22;;;;;;;20.03;4.00;;;3.10;99.50;;;;;;4996747;28;20261;-91
2021/04/03 06:04:58;;;;;;;21.67;3.47;;;3.00;99.50;;;;;;5014188;28;20220;-91
2021/04/03 06:07:32;;;;;;;26.53;4.93;;;3.00;99.90;;;;;;4996707;28;20261;-91
2021/04/03 06:10:11;;;;;;;29.27;6.40;;;2.90;99.90;;;;;;4996632;28;20170;-91
2021/04/03 06:12:48;;;;;;;19.47;4.60;;;3.00;99.90;;;;;;4996487;28;20194;-92
2021/04/03 06:15:39;;;;;;;20.37;4.40;;;3.10;99.90;;;;;;4996484;28;20585;-92
2021/04/03 06:18:10;;;;;;;15.40;4.17;;;3.20;99.90;;;;;;4996630;28;20203;-91
2021/04/03 06:20:40;;;;;;;22.63;4.43;;;3.20;99.80;;;;;;4996319;28;20714;-93
2021/04/03 06:23:43;;;;;;;20.93;3.83;;;3.40;99.70;;;;;;4996475;28;20163;-92
2021/04/03 06:26:21;;;;;;;20.83;4.13;;;3.60;99.60;;;;;;4996575;28;20531;-93
2021/04/03 06:28:47;;;;;;;21.07;4.03;;;3.60;99.30;;;;;;4998881;28;20617;-92
2021/04/03 06:31:18;;;;;;;18.53;3.93;;;3.60;99.50;;;;;;5032374;28;20290;-90
2021/04/03 06:33:49;;;;;;;17.03;4.00;;;3.70;99.60;;;;;;5032500;28;20176;-92
2021/04/03 06:36:18;;;;;;;22.13;4.23;;;3.80;99.30;;;;;;5032330;28;20235;-91
2021/04/03 06:38:47;;;;;;;22.03;4.60;;;3.90;99.20;;;;;;5032529;28;20264;-92
2021/04/03 06:41:26;;;;;;;19.87;5.07;;;4.00;99.10;;;;;;5032204;28;20579;-91
2021/04/03 06:44:13;;;;;;;23.77;3.93;;;4.10;99.20;;;;;;5033882;28;20171;-91
2021/04/03 06:46:52;;;;;;;20.77;4.30;;;4.10;99.00;;;;;;5035796;28;20174;-92
2021/04/03 06:49:45;;;;;;;24.00;4.87;;;4.10;99.10;;;;;;5035766;28;20657;-92
2021/04/03 06:52:22;;;;;;;15.90;3.97;;;4.20;99.10;;;;;;5035747;28;20272;-90
2021/04/03 06:58:08;;;;;;;18.43;4.67;;;4.30;98.80;;;;;;5036182;28;20266;-92
2021/04/03 07:00:52;;;;;;;18.50;4.40;;;4.40;98.90;;;;;;5032025;28;20214;-89
2021/04/03 07:03:24;;;;;;;21.50;4.60;;;4.50;98.80;;;;;;4999526;28;20166;-92
2021/04/03 07:05:54;;;;;;;19.47;4.70;;;4.60;98.40;;;;;;4999353;28;20165;-92
2021/04/03 07:08:23;;;;;;;23.13;5.03;;;4.60;98.30;;;;;;4999226;28;20236;-93
2021/04/03 07:10:53;;;;;;;14.80;3.77;;;4.70;98.20;;;;;;4999157;28;20193;-92
2021/04/03 07:13:21;;;;;;;21.33;4.40;;;4.80;98.30;;;;;;4999487;28;20175;-93
2021/04/03 07:16:31;;;;;;;15.20;4.00;;;4.80;98.20;;;;;;4999190;28;20175;-91
2021/04/03 07:19:09;;;;;;;18.60;4.00;;;5.00;98.40;;;;;;4999117;28;20226;-91
2021/04/03 07:21:37;;;;;;;13.23;3.77;;;5.10;97.80;;;;;;4999098;28;20205;-92
2021/04/03 07:24:04;;;;;;;13.00;4.20;;;5.20;97.70;;;;;;4999189;28;20515;-92
2021/04/03 07:26:36;;;;;;;19.17;3.70;;;5.30;97.40;;;;;;4998998;28;20171;-91
2021/04/03 07:29:04;;;;;;;18.13;3.80;;;5.40;97.60;;;;;;5003639;28;20523;-91
2021/04/03 07:31:46;;;;;;;15.17;3.73;;;5.50;96.80;;;;;;5018313;28;20201;-93
2021/04/03 07:34:42;;;;;;;14.70;3.97;;;5.70;97.00;;;;;;5016361;28;20173;-91
2021/04/03 07:37:30;;;;;;;11.00;3.57;;;5.70;97.10;;;;;;4995584;28;20270;-92
2021/04/03 07:39:56;;;;;;;14.97;4.07;;;5.90;96.70;;;;;;4995315;28;20231;-92
2021/04/03 07:42:41;;;;;;;14.87;4.00;;;6.00;97.10;;;;;;4995547;28;20718;-92
2021/04/03 07:45:53;;;;;;;16.53;3.87;;;6.10;95.90;;;;;;4995516;28;20169;-90
2021/04/03 07:48:38;;;;;;;9.20;3.23;;;6.30;96.30;;;;;;4995513;28;20214;-89
2021/04/03 07:54:33;;;;;;;13.77;3.63;;;6.30;95.60;;;;;;4985743;28;20271;-92
2021/04/03 07:57:08;;;;;;;14.97;3.70;;;6.50;95.60;;;;;;4995142;28;20257;-93
2021/04/03 07:59:53;;;;;;;17.83;3.97;;;6.70;94.70;;;;;;4995009;28;20353;-89
2021/04/03 08:02:42;;;;;;;17.50;4.23;;;6.70;94.60;;;;;;4994928;28;20192;-92
2021/04/03 08:05:13;;;;;;;12.27;2.90;;;6.80;95.70;;;;;;4995091;28;20175;-92
2021/04/03 08:07:39;;;;;;;13.97;4.00;;;7.00;93.60;;;;;;4995185;28;20172;-91
2021/04/03 08:10:17;;;;;;;13.40;3.80;;;7.00;94.30;;;;;;4994797;28;20225;-92
2021/04/03 08:15:34;;;;;;;16.17;3.83;;;7.20;94.60;;;;;;4996119;28;20167;-91
2021/04/03 08:18:00;;;;;;;15.30;3.60;;;7.40;94.30;;;;;;4994919;28;20718;-92
2021/04/03 08:20:52;;;;;;;13.07;3.17;;;7.50;94.70;;;;;;4994651;28;20236;-89
2021/04/03 08:23:50;;;;;;;14.17;4.07;;;7.50;94.40;;;;;;4994850;28;20164;-91
2021/04/03 08:26:48;;;;;;;14.10;3.23;;;7.60;93.60;;;;;;4994717;28;20214;-91
2021/04/03 08:29:50;;;;;;;14.60;3.57;;;7.60;94.00;;;;;;4994354;28;20523;-90
2021/04/03 08:32:21;;;;;;;19.93;3.87;;;7.60;93.40;;;;;;4994429;28;20273;-91
2021/04/03 08:34:52;;;;;;;13.37;3.27;;;7.70;94.00;;;;;;4999991;28;20230;-92
2021/04/03 08:37:18;;;;;;;16.47;3.67;;;7.90;93.50;;;;;;5017195;28;20182;-90
2021/04/03 08:40:23;;;;;;;11.33;3.67;;;8.00;93.20;;;;;;5017449;28;20198;-92
2021/04/03 08:42:54;;;;;;;11.87;2.90;;;8.10;93.80;;;;;;5017179;28;20334;-93
2021/04/03 08:48:57;;;;;;;13.47;3.50;;;8.20;92.80;;;;;;4974201;28;20188;-91
2021/04/03 08:51:37;;;;;;;9.93;3.27;;;8.40;92.80;;;;;;5010425;28;20261;-91
2021/04/03 08:54:20;;;;;;;15.60;3.37;;;8.60;92.40;;;;;;5017034;28;20178;-91
2021/04/03 08:56:50;;;;;;;10.53;2.90;;;8.70;91.10;;;;;;5016994;28;20178;-92
2021/04/03 08:59:27;;;;;;;13.60;3.10;;;8.80;90.70;;;;;;5017032;28;20698;-92
2021/04/03 09:02:01;;;;;;;10.70;2.20;;;8.80;87.00;;;;;;5033490;28;20198;-91
2021/04/03 09:04:29;;;;;;;10.93;3.13;;;8.90;86.40;;;;;;5033349;28;20170;-92
2021/04/03 09:07:03;;;;;;;8.07;2.30;;;9.00;87.90;;;;;;5032900;28;20266;-90
2021/04/03 09:09:38;;;;;;;13.50;3.00;;;9.00;88.40;;;;;;5033267;28;20640;-90
2021/04/03 09:12:16;;;;;;;12.73;3.27;;;9.00;89.00;;;;;;5032585;28;20272;-91
2021/04/03 09:15:19;;;;;;;11.47;2.60;;;9.10;88.20;;;;;;5033342;28;20190;-91
2021/04/03 09:18:16;;;;;;;7.77;2.53;;;9.30;90.00;;;;;;5016718;28;20170;-91
2021/04/03 09:20:50;;;;;;;7.27;2.40;;;9.20;87.20;;;;;;5033082;28;20605;-92
2021/04/03 09:23:23;;;;;;;6.23;1.93;;;9.30;86.10;;;;;;5016659;28;20216;-91
2021/04/03 09:26:11;;;;;;;8.87;2.47;;;9.40;85.90;;;;;;5033134;28;20247;-92
2021/04/03 09:28:49;;;;;;;8.87;2.03;;;9.40;84.50;;;;;;5032860;28;20163;-92
2021/04/03 09:31:17;;;;;;;5.67;1.60;;;9.60;83.40;;;;;;5016461;28;20769;-90
2021/04/03 09:34:03;;;;;;;8.73;2.17;;;9.70;82.40;;;;;;5016460;28;20171;-91
2021/04/03 09:36:46;;;;;;;6.40;1.83;;;9.90;81.30;;;;;;5016360;28;20586;-93
2021/04/03 09:39:20;;;;;;;6.70;1.90;;;10.00;80.50;;;;;;5016963;28;20174;-92
2021/04/03 09:41:50;;;;;;;7.60;2.30;;;10.10;79.40;;;;;;5034164;28;20224;-92
2021/04/03 09:44:19;;;;;;;4.80;1.60;;;10.10;81.10;;;;;;5016529;28;20166;-91
2021/04/03 09:46:52;;;;;;;7.20;1.60;;;10.20;79.30;;;;;;5016652;28;20203;-91
2021/04/03 09:49:20;;;;;;;8.23;1.93;;;10.20;77.30;;;;;;5014961;28;20182;-90
2021/04/03 09:52:00;;;;;;;4.90;2.00;;;10.10;79.10;;;;;;5016250;28;20258;-93
2021/04/03 09:54:38;;;;;;;5.03;1.37;;;10.30;78.80;;;;;;5016271;28;20192;-93
2021/04/03 09:57:20;;;;;;;4.20;1.30;;;10.30;76.00;;;;;;5016333;28;20167;-90
2021/04/03 09:59:49;;;;;;;6.37;1.97;;;10.20;75.50;;;;;;5016069;28;20198;-92
2021/04/03 10:02:17;;;;;;;4.80;1.80;;;10.20;79.70;;;;;;5016178;28;20190;-91
2021/04/03 10:04:48;;;;;;;6.63;1.83;;;10.10;79.70;;;;;;5016127;28;20163;-94
2021/04/03 10:07:26;;;;;;;4.03;1.33;;;10.10;79.20;;;;;;5015928;28;20217;-91
2021/04/03 10:09:52;;;;;;;4.57;1.57;;;10.20;73.40;;;;;;5016212;28;20637;-93
2021/04/03 10:12:20;;;;;;;4.37;1.30;;;10.30;74.90;;;;;;5016086;28;20198;-92
2021/04/03 10:14:53;;;;;;;4.77;1.10;;;10.30;74.30;;;;;;5016119;28;20195;-89
2021/04/03 10:17:21;;;;;;;2.80;0.97;;;10.20;72.90;;;;;;5016245;28;20631;-91
2021/04/03 10:19:51;;;;;;;2.23;1.10;;;10.40;72.40;;;;;;5019050;28;20229;-90
2021/04/03 10:22:19;;;;;;;4.23;0.87;;;10.40;71.70;;;;;;5019577;28;20206;-91
2021/04/03 10:24:47;;;;;;;3.30;0.70;;;10.20;67.90;;;;;;5037433;28;20254;-93
2021/04/03 10:27:15;;;;;;;1.67;0.50;;;10.30;68.20;;;;;;5019733;28;20171;-90
2021/04/03 10:29:47;;;;;;;2.00;0.90;;;10.60;68.30;;;;;;5019880;28;20170;-89
2021/04/03 10:32:19;;;;;;;2.57;1.20;;;10.80;67.90;;;;;;5019487;28;20202;-91
2021/04/03 10:35:00;;;;;;;1.87;0.83;;;10.60;64.30;;;;;;5019951;28;20171;-91
2021/04/03 10:37:27;;;;;;;2.93;0.80;;;10.70;66.00;;;;;;5020244;28;20198;-88
2021/04/03 10:39:54;;;;;;;2.60;1.10;;;10.90;65.90;;;;;;5019828;28;20202;-90
2021/04/03 10:42:22;;;;;;;3.20;0.90;;;11.20;63.20;;;;;;5019567;28;20257;-90
2021/04/03 10:45:00;;;;;;;1.73;0.90;;;11.20;62.50;;;;;;5019546;28;20175;-91
2021/04/03 10:47:32;;;;;;;1.87;0.80;;;11.40;61.50;;;;;;5019370;28;20178;-90
2021/04/03 10:50:03;;;;;;;2.50;0.70;;;11.50;58.90;;;;;;5019386;28;20171;-90
2021/04/03 10:52:29;;;;;;;2.20;0.83;;;11.40;59.80;;;;;;5019089;28;20195;-92
2021/04/03 10:55:17;;;;;;;3.77;0.80;;;11.40;59.10;;;;;;5019320;28;20174;-90
2021/04/03 10:57:57;;;;;;;1.20;0.67;;;11.20;57.30;;;;;;5019185;28;20182;-91
2021/04/03 11:00:27;;;;;;;2.57;0.80;;;11.10;57.70;;;;;;5003431;28;20582;-90
2021/04/03 11:02:56;;;;;;;2.37;0.87;;;11.10;57.70;;;;;;4999385;28;20172;-90
2021/04/03 11:05:22;;;;;;;1.63;0.57;;;11.20;60.50;;;;;;4999326;28;20172;-88
2021/04/03 11:07:49;;;;;;;2.03;0.90;;;11.20;57.90;;;;;;5016634;28;20210;-92
2021/04/03 11:10:19;;;;;;;2.07;0.87;;;11.20;57.90;;;;;;4999298;28;20588;-91
2021/04/03 11:12:45;;;;;;;2.17;0.70;;;11.10;58.90;;;;;;4999441;28;20237;-91
2021/04/03 11:15:16;;;;;;;3.40;1.20;;;11.10;59.90;;;;;;4999056;28;20171;-91
2021/04/03 11:17:45;;;;;;;3.57;0.87;;;11.30;59.80;;;;;;4999218;28;20531;-91
2021/04/03 11:20:53;;;;;;;2.93;0.90;;;11.50;57.00;;;;;;4999197;28;20207;-90
2021/04/03 11:23:37;;;;;;;1.47;0.80;;;11.60;56.80;;;;;;5016337;28;20160;-91
2021/04/03 11:26:11;;;;;;;1.97;0.70;;;11.50;53.80;;;;;;4999107;28;20179;-93
2021/04/03 11:28:37;;;;;;;2.03;0.87;;;11.40;55.50;;;;;;4999844;28;20172;-91
2021/04/03 11:31:09;;;;;;;5.07;1.10;;;11.50;57.30;;;;;;5018284;28;20202;-91
2021/04/03 11:33:35;;;;;;;2.13;0.90;;;11.50;56.60;;;;;;5018553;28;20174;-91
2021/04/03 11:36:01;;;;;;;2.40;0.77;;;11.60;56.60;;;;;;5004852;28;20293;-89
2021/04/03 11:38:27;;;;;;;3.57;1.00;;;11.70;56.90;;;;;;4995725;28;20188;-90
2021/04/03 11:40:56;;;;;;;1.90;0.90;;;11.80;56.90;;;;;;4995647;28;20208;-92
2021/04/03 11:43:23;;;;;;;1.30;0.53;;;11.70;53.40;;;;;;4997334;28;20312;-91
2021/04/03 11:45:49;;;;;;;2.70;0.80;;;11.50;54.90;;;;;;4995288;28;20233;-91
2021/04/03 11:48:17;;;;;;;4.50;0.97;;;11.60;55.60;;;;;;4995632;28;20176;-92
2021/04/03 11:50:47;;;;;;;3.17;0.80;;;11.90;55.90;;;;;;4996399;28;20190;-90
2021/04/03 11:53:14;;;;;;;2.40;0.80;;;11.90;55.40;;;;;;4995442;28;20235;-91
2021/04/03 11:55:45;;;;;;;5.10;1.10;;;12.00;56.30;;;;;;4995372;28;20179;-92
2021/04/03 11:58:12;;;;;;;1.37;0.80;;;11.90;56.10;;;;;;4995208;28;20211;-92
2021/04/03 12:00:55;;;;;;;2.23;0.70;;;12.10;55.70;;;;;;4995005;28;20668;-91
2021/04/03 12:03:22;;;;;;;1.53;0.60;;;12.20;55.50;;;;;;4995311;28;20171;-92
2021/04/03 12:05:48;;;;;;;1.67;0.70;;;12.30;53.20;;;;;;4994822;28;20172;-92
2021/04/03 12:08:42;;;;;;;2.03;0.90;;;12.10;52.70;;;;;;4994805;28;20176;-92
2021/04/03 12:11:12;;;;;;;2.77;0.60;;;12.00;53.00;;;;;;4994892;28;20199;-91
2021/04/03 12:13:39;;;;;;;2.67;0.73;;;12.00;54.00;;;;;;4995094;28;20299;-90
2021/04/03 12:16:20;;;;;;;1.57;0.80;;;12.20;54.50;;;;;;4994859;28;20180;-92
2021/04/03 12:18:50;;;;;;;1.37;0.70;;;12.30;54.70;;;;;;4994804;28;20674;-90
2021/04/03 12:22:03;;;;;;;3.03;1.00;;;12.30;54.20;;;;;;4994510;28;20216;-93
2021/04/03 12:24:34;;;;;;;6.30;0.93;;;12.20;53.70;;;;;;4994752;28;20632;-91
2021/04/03 12:27:03;;;;;;;4.43;0.90;;;12.20;53.70;;;;;;4994682;28;20231;-93
2021/04/03 12:29:32;;;;;;;1.63;0.70;;;12.10;53.70;;;;;;4986708;28;20653;-91
2021/04/03 12:32:14;;;;;;;2.40;1.00;;;11.90;54.00;;;;;;4975223;28;20259;-90
2021/04/03 12:34:40;;;;;;;4.30;1.20;;;12.00;54.70;;;;;;4978412;28;20259;-90
2021/04/03 12:37:09;;;;;;;2.63;1.00;;;12.20;55.50;;;;;;4997852;28;20210;-92
2021/04/03 12:39:37;;;;;;;2.17;0.80;;;12.30;53.50;;;;;;5015306;28;20161;-90
2021/04/03 12:42:03;;;;;;;1.20;0.70;;;12.50;53.90;;;;;;4996953;28;20210;-91
2021/04/03 12:44:38;;;;;;;2.30;0.80;;;12.70;50.70;;;;;;4997529;28;20183;-91
2021/04/03 12:47:18;;;;;;;1.53;0.67;;;12.60;52.10;;;;;;4997616;28;20177;-93
2021/04/03 12:49:46;;;;;;;2.10;0.93;;;12.50;51.60;;;;;;4997509;28;20175;-92
2021/04/03 12:52:14;;;;;;;2.03;1.03;;;12.50;52.80;;;;;;4997238;28;20202;-92
2021/04/03 12:55:06;;;;;;;1.83;0.80;;;12.40;55.40;;;;;;4997250;28;20197;-92
2021/04/03 12:57:44;;;;;;;3.57;1.17;;;12.30;53.40;;;;;;4997364;28;20188;-94
2021/04/03 13:00:11;;;;;;;3.80;0.90;;;12.10;53.70;;;;;;5010967;28;20300;-90
2021/04/03 13:02:38;;;;;;;5.13;1.10;;;11.90;55.40;;;;;;5016902;28;20256;-90
2021/04/03 13:05:05;;;;;;;4.57;1.17;;;11.90;55.30;;;;;;5017229;28;20309;-92
2021/04/03 13:07:50;;;;;;;3.10;1.03;;;12.00;53.70;;;;;;5016508;28;20212;-91
2021/04/03 13:10:26;;;;;;;5.43;1.23;;;12.10;54.30;;;;;;5016823;28;20190;-90
2021/04/03 13:12:59;;;;;;;1.97;0.93;;;12.40;53.50;;;;;;5016717;28;20185;-92
2021/04/03 13:15:25;;;;;;;2.53;0.80;;;12.50;52.50;;;;;;5016362;28;20265;-93
2021/04/03 13:17:51;;;;;;;3.33;0.97;;;12.70;53.90;;;;;;5016951;28;20205;-91
2021/04/03 13:20:18;;;;;;;1.93;0.60;;;12.90;53.50;;;;;;5016639;28;20198;-92
2021/04/03 13:22:45;;;;;;;2.10;1.00;;;13.00;50.60;;;;;;5016645;28;20255;-92
2021/04/03 13:25:11;;;;;;;3.37;0.80;;;12.70;50.50;;;;;;5016700;28;20171;-93
2021/04/03 13:27:37;;;;;;;1.87;0.83;;;12.50;53.00;;;;;;5016682;28;20171;-91
2021/04/03 13:30:06;;;;;;;2.60;0.90;;;12.50;52.50;;;;;;5016677;28;20171;-92
2021/04/03 13:32:41;;;;;;;1.37;0.80;;;12.50;51.30;;;;;;5016768;28;20202;-91
2021/04/03 13:35:25;;;;;;;1.92;0.95;;;12.60;52.10;;;;;;5033989;28;20598;-93
2021/04/03 13:37:52;;;;;;;1.63;0.90;;;12.60;52.50;;;;;;5016505;28;20182;-91
2021/04/03 13:40:18;;;;;;;1.80;0.83;;;12.50;51.30;;;;;;5016601;28;20206;-91
2021/04/03 13:42:47;;;;;;;2.83;1.30;;;12.30;51.70;;;;;;5016617;28;20199;-91
2021/04/03 13:45:13;;;;;;;1.67;0.90;;;12.20;52.40;;;;;;5016717;28;20174;-92